5 day graph

You are here

Hive Data

Page: 1 of 16645  Records: 998690

Row Date Time Hive Temp Hive Humidity Outside Temp Outside Humidity Bottom Board Temp Outside Wall Temp Electronics Temp Light Levels inHG Fan Heat Cover Notes
Clear Sorted By: Electronics Temp ascending, Outside Temp ascending, Bottom Board Temp ascending, Cover ascending, Row descending
View 722119 Nov 29 2015 7:10:28am 62.06 41 19.04 80 18.5 26.6 33.8 446 29.46 0 0 0 NA
View 722084 Nov 29 2015 6:35:21am 61.7 43 18.5 81 18.95 26.6 35.6 446 29.47 0 0 0 NA
View 722083 Nov 29 2015 6:34:20am 61.7 43 18.5 80 18.95 26.6 35.6 446 29.46 0 0 0 NA
View 722082 Nov 29 2015 6:33:20am 61.88 41 18.5 80 18.95 26.6 35.6 446 29.47 0 0 0 NA
View 722081 Nov 29 2015 6:32:20am 61.88 42 18.5 80 18.95 26.6 35.6 446 29.47 0 0 0 NA
View 722080 Nov 29 2015 6:31:20am 61.88 46 18.5 79 18.95 26.6 35.6 445 29.47 0 0 0 NA
View 722079 Nov 29 2015 6:30:20am 61.7 48 18.5 79 18.95 26.6 35.6 446 29.47 0 0 0 NA
View 722078 Nov 29 2015 6:29:19am 61.7 49 18.5 79 18.95 26.6 35.6 446 29.46 0 0 0 NA
View 722077 Nov 29 2015 6:28:19am 61.52 56 18.5 79 18.95 26.6 35.6 446 29.46 0 0 0 NA
View 722076 Nov 29 2015 6:27:19am 61.34 42 18.5 79 18.95 26.6 35.6 446 29.47 0 0 0 NA
View 722075 Nov 29 2015 6:26:19am 61.34 43 18.5 79 18.95 26.6 35.6 446 29.46 0 0 0 NA
View 722074 Nov 29 2015 6:25:19am 61.34 42 18.5 79 18.95 26.6 35.6 446 29.46 0 0 0 NA
View 722073 Nov 29 2015 6:24:19am 61.34 39 18.5 80 18.95 26.6 35.6 446 29.46 0 0 0 NA
View 722145 Nov 29 2015 7:36:32am 61.52 40 18.68 82 18.5 26.6 35.6 449 29.46 0 0 0 NA
View 722144 Nov 29 2015 7:35:32am 61.52 39 18.68 82 18.5 26.6 35.6 449 29.46 0 0 0 NA
View 722143 Nov 29 2015 7:34:32am 61.52 42 18.68 82 18.5 26.15 35.6 450 29.46 0 0 0 NA
View 722142 Nov 29 2015 7:33:32am 61.52 40 18.68 81 18.5 26.15 35.6 450 29.47 0 0 0 NA
View 722141 Nov 29 2015 7:32:32am 61.52 41 18.68 81 18.5 26.15 35.6 450 29.46 0 0 0 NA
View 722140 Nov 29 2015 7:31:32am 61.7 39 18.68 80 18.5 26.15 35.6 449 29.46 0 0 0 NA
View 722139 Nov 29 2015 7:30:31am 61.7 35 18.68 80 18.5 26.15 35.6 449 29.46 0 0 0 NA
View 722138 Nov 29 2015 7:29:31am 61.88 36 18.68 80 18.5 26.15 35.6 449 29.46 0 0 0 NA
View 722137 Nov 29 2015 7:28:31am 61.88 41 18.68 80 18.5 26.15 35.6 449 29.46 0 0 0 NA
View 722136 Nov 29 2015 7:27:31am 61.88 41 18.68 80 18.5 26.15 35.6 449 29.46 0 0 0 NA
View 722135 Nov 29 2015 7:26:31am 61.88 38 18.68 80 18.5 26.15 35.6 449 29.47 0 0 0 NA
View 722134 Nov 29 2015 7:25:30am 61.88 40 18.68 80 18.5 26.15 35.6 448 29.46 0 0 0 NA
View 722133 Nov 29 2015 7:24:30am 61.88 41 18.68 80 18.5 26.15 35.6 449 29.46 0 0 0 NA
View 722131 Nov 29 2015 7:22:30am 62.06 42 18.68 79 18.5 26.15 35.6 449 29.46 0 0 0 NA
View 722100 Nov 29 2015 6:51:24am 61.34 41 18.68 81 18.5 26.6 35.6 446 29.47 0 0 0 NA
View 722099 Nov 29 2015 6:50:24am 61.34 37 18.68 81 18.5 26.6 35.6 446 29.46 0 0 0 NA
View 722101 Nov 29 2015 6:52:24am 61.34 43 18.68 82 18.95 26.6 35.6 445 29.47 0 0 0 NA
View 722098 Nov 29 2015 6:49:23am 61.52 37 18.68 80 18.95 26.6 35.6 446 29.47 0 0 0 NA
View 722097 Nov 29 2015 6:48:23am 61.52 39 18.68 80 18.95 26.6 35.6 446 29.46 0 0 0 NA
View 722096 Nov 29 2015 6:47:23am 61.52 41 18.68 80 18.95 26.6 35.6 445 29.47 0 0 0 NA
View 722095 Nov 29 2015 6:46:23am 61.52 39 18.68 80 18.95 26.6 35.6 446 29.47 0 0 0 NA
View 722094 Nov 29 2015 6:45:22am 61.7 39 18.68 80 18.95 26.6 35.6 446 29.46 0 0 0 NA
View 722093 Nov 29 2015 6:44:22am 61.7 40 18.68 80 18.95 26.6 35.6 446 29.47 0 0 0 NA
View 722092 Nov 29 2015 6:43:22am 61.7 43 18.68 80 18.95 26.6 35.6 446 29.47 0 0 0 NA
View 722091 Nov 29 2015 6:42:22am 61.7 36 18.68 80 18.95 26.6 35.6 446 29.47 0 0 0 NA
View 722090 Nov 29 2015 6:41:22am 61.7 35 18.68 80 18.95 26.6 35.6 446 29.46 0 0 0 NA
View 722089 Nov 29 2015 6:40:22am 61.7 37 18.68 80 18.95 26.6 35.6 446 29.47 0 0 0 NA
View 722088 Nov 29 2015 6:39:21am 61.7 36 18.68 80 18.95 26.6 35.6 445 29.46 0 0 0 NA
View 722087 Nov 29 2015 6:38:21am 61.88 38 18.68 80 18.95 26.6 35.6 446 29.47 0 0 0 NA
View 722086 Nov 29 2015 6:37:21am 61.7 41 18.68 81 18.95 26.6 35.6 446 29.47 0 0 0 NA
View 722085 Nov 29 2015 6:36:21am 61.88 42 18.68 81 18.95 26.6 35.6 446 29.47 0 0 0 NA
View 722072 Nov 29 2015 6:23:18am 61.34 39 18.68 80 18.95 26.6 35.6 445 29.47 0 0 0 NA
View 722071 Nov 29 2015 6:22:18am 61.52 34 18.68 80 18.95 26.6 35.6 446 29.47 0 0 0 NA
View 722070 Nov 29 2015 6:21:18am 61.52 34 18.68 80 18.95 26.6 35.6 446 29.47 0 0 0 NA
View 722171 Nov 29 2015 8:02:38am 60.8 38 18.86 80 18.5 26.6 35.6 457 29.46 0 0 0 NA
View 722170 Nov 29 2015 8:01:37am 60.8 40 18.86 80 18.5 26.6 35.6 457 29.46 0 0 0 NA
View 722169 Nov 29 2015 8:00:37am 60.98 39 18.86 80 18.5 26.6 35.6 456 29.47 0 0 0 NA
View 722168 Nov 29 2015 7:59:37am 60.98 36 18.86 80 18.5 26.6 35.6 456 29.46 0 0 0 NA
View 722167 Nov 29 2015 7:58:37am 61.16 36 18.86 80 18.5 26.6 35.6 456 29.46 0 0 0 NA
View 722166 Nov 29 2015 7:57:37am 61.34 36 18.86 80 18.5 26.6 35.6 455 29.46 0 0 0 NA
View 722165 Nov 29 2015 7:56:36am 61.34 38 18.86 80 18.5 26.6 35.6 456 29.47 0 0 0 NA
View 722164 Nov 29 2015 7:55:36am 61.52 38 18.86 80 18.5 26.6 35.6 456 29.46 0 0 0 NA
View 722163 Nov 29 2015 7:54:36am 61.7 40 18.86 80 18.5 26.6 35.6 455 29.46 0 0 0 NA
View 722162 Nov 29 2015 7:53:36am 61.7 39 18.86 80 18.5 26.6 35.6 455 29.46 0 0 0 NA
View 722161 Nov 29 2015 7:52:36am 61.88 42 18.86 80 18.5 26.6 35.6 454 29.46 0 0 0 NA
View 722160 Nov 29 2015 7:51:36am 62.06 42 18.86 80 18.5 26.6 35.6 454 29.46 0 0 0 NA
View 722158 Nov 29 2015 7:49:35am 62.24 41 18.86 80 18.5 26.6 35.6 454 29.46 0 0 0 NA